Time;durP1;ratioP1;P1;durP2;ratioP2;P2;SDS_P1;SDS_P2;PMS_P1;PMS_P2;Temp;Humidity;BMP_temperature;BMP_pressure;BME280_temperature;BME280_humidity;BME280_pressure;Samples;Min_cycle;Max_cycle;Signal;HPM_P1;HPM_P2
2021/12/23 00:00:42;;;;;;;51.13;19.17;;;4.20;99.90;;;;;;5089801;28;20048;-60
2021/12/23 00:03:10;;;;;;;49.67;20.60;;;4.20;99.90;;;;;;5090542;28;20399;-61
2021/12/23 00:05:38;;;;;;;50.72;19.65;;;4.20;99.90;;;;;;5090024;28;20040;-61
2021/12/23 00:08:06;;;;;;;56.05;20.73;;;4.20;99.90;;;;;;5079550;28;20051;-62
2021/12/23 00:10:33;;;;;;;49.65;20.65;;;4.20;99.90;;;;;;5091145;28;21021;-61
2021/12/23 00:13:01;;;;;;;54.90;21.33;;;4.20;99.90;;;;;;5090483;28;20423;-62
2021/12/23 00:18:16;;;;;;;48.95;20.02;;;4.20;99.90;;;;;;5090569;28;20051;-61
2021/12/23 00:23:26;;;;;;;57.85;19.25;;;4.10;99.90;;;;;;5079090;28;20068;-62
2021/12/23 00:26:00;;;;;;;55.78;20.98;;;4.20;99.90;;;;;;5090953;28;20467;-61
2021/12/23 00:28:32;;;;;;;52.33;20.52;;;4.20;99.90;;;;;;5090462;28;20063;-63
2021/12/23 00:31:01;;;;;;;48.03;20.48;;;4.20;99.90;;;;;;5089305;28;20051;-63
2021/12/23 00:33:30;;;;;;;49.35;20.95;;;4.20;99.90;;;;;;5090493;28;20463;-62
2021/12/23 00:35:58;;;;;;;53.75;20.65;;;4.20;99.90;;;;;;5090508;28;20048;-63
2021/12/23 00:38:30;;;;;;;53.08;20.95;;;4.20;99.90;;;;;;5082368;28;20051;-64
2021/12/23 00:41:01;;;;;;;54.78;21.88;;;4.20;99.90;;;;;;5090416;28;20044;-60
2021/12/23 00:43:32;;;;;;;49.75;21.95;;;4.20;99.90;;;;;;5088088;28;20060;-62
2021/12/23 00:46:01;;;;;;;60.42;23.63;;;4.20;99.90;;;;;;5089908;28;20045;-61
2021/12/23 00:48:29;;;;;;;55.97;22.17;;;4.20;99.90;;;;;;5089836;28;20527;-63
2021/12/23 00:51:00;;;;;;;65.50;24.27;;;4.20;99.90;;;;;;5090067;28;20040;-60
2021/12/23 00:53:35;;;;;;;58.55;24.65;;;4.20;99.90;;;;;;5081062;28;20051;-60
2021/12/23 00:56:03;;;;;;;66.70;23.30;;;4.20;99.90;;;;;;5090153;28;20071;-61
2021/12/23 00:58:31;;;;;;;55.00;22.08;;;4.30;99.90;;;;;;5089596;28;20040;-61
2021/12/23 01:01:00;;;;;;;58.80;22.67;;;4.30;99.90;;;;;;5089714;28;20048;-61
2021/12/23 01:03:30;;;;;;;57.88;21.83;;;4.30;99.90;;;;;;5085650;28;20055;-63
2021/12/23 01:05:58;;;;;;;56.85;23.10;;;4.30;99.90;;;;;;5086227;28;20048;-60
2021/12/23 01:08:26;;;;;;;60.75;22.60;;;4.30;99.90;;;;;;5084644;28;20059;-63
2021/12/23 01:10:57;;;;;;;55.35;22.50;;;4.30;99.90;;;;;;5088376;28;20047;-61
2021/12/23 01:13:28;;;;;;;57.60;23.33;;;4.40;99.90;;;;;;5089350;28;20055;-61
2021/12/23 01:16:06;;;;;;;54.50;21.30;;;4.40;99.90;;;;;;5089509;28;20055;-61
2021/12/23 01:18:42;;;;;;;57.95;23.33;;;4.40;99.90;;;;;;5089847;28;20053;-61
2021/12/23 01:21:16;;;;;;;63.83;23.70;;;4.40;99.90;;;;;;5087999;28;20063;-63
2021/12/23 01:23:52;;;;;;;58.05;22.30;;;4.40;99.90;;;;;;5084184;28;20079;-61
2021/12/23 01:26:22;;;;;;;53.17;20.55;;;4.40;99.90;;;;;;5089617;28;20036;-63
2021/12/23 01:28:56;;;;;;;69.72;23.92;;;4.40;99.90;;;;;;5089201;28;20044;-60
2021/12/23 01:31:26;;;;;;;64.05;22.45;;;4.50;99.90;;;;;;5089103;28;20439;-61
2021/12/23 01:33:54;;;;;;;60.15;22.38;;;4.50;99.90;;;;;;5089077;28;20396;-62
2021/12/23 01:36:25;;;;;;;61.50;23.73;;;4.50;99.90;;;;;;5089285;28;20044;-62
2021/12/23 01:38:53;;;;;;;63.10;22.05;;;4.40;99.90;;;;;;5066062;28;20401;-59
2021/12/23 01:41:23;;;;;;;67.60;22.77;;;4.50;99.90;;;;;;5048648;28;20048;-62
2021/12/23 01:43:52;;;;;;;50.40;21.80;;;4.50;99.90;;;;;;5067852;28;20562;-60
2021/12/23 01:46:22;;;;;;;62.30;22.47;;;4.40;99.90;;;;;;5089039;28;20498;-60
2021/12/23 01:48:51;;;;;;;54.67;20.52;;;4.50;99.90;;;;;;5088776;28;20044;-62
2021/12/23 01:51:19;;;;;;;67.77;21.83;;;4.50;99.90;;;;;;5088831;28;20051;-62
2021/12/23 01:53:48;;;;;;;55.10;21.58;;;4.50;99.90;;;;;;5086390;28;20419;-62
2021/12/23 01:56:17;;;;;;;54.03;21.75;;;4.50;99.90;;;;;;5086895;28;20063;-62
2021/12/23 01:58:46;;;;;;;57.00;21.90;;;4.50;99.90;;;;;;5087110;28;20048;-61
2021/12/23 02:01:14;;;;;;;57.45;23.13;;;4.50;99.90;;;;;;5087454;28;20407;-60
2021/12/23 02:03:42;;;;;;;65.35;22.50;;;4.40;99.90;;;;;;5088329;28;20044;-61
2021/12/23 02:06:10;;;;;;;57.17;21.63;;;4.50;99.90;;;;;;5070786;28;20039;-59
2021/12/23 02:08:39;;;;;;;48.63;20.17;;;4.40;99.90;;;;;;5072193;28;20056;-60
2021/12/23 02:11:09;;;;;;;53.65;22.42;;;4.40;99.90;;;;;;5047143;28;20523;-60
2021/12/23 02:13:38;;;;;;;55.05;21.88;;;4.40;99.90;;;;;;5062068;28;20060;-60
2021/12/23 02:16:06;;;;;;;59.42;21.20;;;4.40;99.90;;;;;;5088538;28;20047;-61
2021/12/23 02:18:35;;;;;;;64.93;21.77;;;4.40;99.90;;;;;;5086861;28;20059;-62
2021/12/23 02:21:05;;;;;;;;;;;4.40;99.90;;;;;;5088979;28;20040;-66
2021/12/23 02:23:34;;;;;;;55.22;22.10;;;4.40;99.90;;;;;;5075757;28;19931;-61
2021/12/23 02:26:03;;;;;;;64.80;22.90;;;4.40;99.90;;;;;;5048352;28;20158;-61
2021/12/23 02:28:31;;;;;;;64.78;23.13;;;4.40;99.90;;;;;;5075218;28;20063;-61
2021/12/23 02:31:02;;;;;;;56.20;21.60;;;4.40;99.90;;;;;;5074496;28;20473;-66
2021/12/23 02:33:30;;;;;;;54.63;21.95;;;4.40;99.90;;;;;;5051322;28;20045;-62
2021/12/23 02:35:59;;;;;;;60.22;23.25;;;4.40;99.90;;;;;;5051298;28;20048;-60
2021/12/23 02:38:27;;;;;;;61.07;21.33;;;4.40;99.90;;;;;;5056057;28;20045;-62
2021/12/23 02:41:03;;;;;;;53.78;22.95;;;4.40;99.90;;;;;;5051416;28;20312;-62
2021/12/23 02:43:37;;;;;;;58.42;23.48;;;4.40;99.90;;;;;;5051122;28;20476;-62
2021/12/23 02:46:06;;;;;;;59.75;23.83;;;4.40;99.90;;;;;;5056748;28;20044;-62
2021/12/23 02:48:38;;;;;;;68.15;22.92;;;4.40;99.90;;;;;;5070827;28;20473;-62
2021/12/23 02:51:08;;;;;;;63.20;23.73;;;4.40;99.90;;;;;;5071220;28;20044;-62
2021/12/23 02:53:36;;;;;;;62.45;23.17;;;4.40;99.90;;;;;;5053698;28;20049;-62
2021/12/23 02:56:06;;;;;;;62.90;24.45;;;4.40;99.90;;;;;;5071304;28;20055;-62
2021/12/23 02:58:34;;;;;;;62.08;22.92;;;4.50;99.90;;;;;;5070603;28;20056;-60
2021/12/23 03:01:05;;;;;;;65.18;23.33;;;4.50;99.90;;;;;;5071316;28;20052;-61
2021/12/23 03:03:36;;;;;;;69.43;24.42;;;4.50;99.90;;;;;;5071255;28;20048;-62
2021/12/23 03:06:05;;;;;;;60.40;24.48;;;4.50;99.90;;;;;;5071141;28;20052;-61
2021/12/23 03:08:40;;;;;;;65.22;23.23;;;4.50;99.90;;;;;;5074201;28;20048;-62
2021/12/23 03:11:12;;;;;;;72.13;24.90;;;4.50;99.90;;;;;;5075379;28;20475;-59
2021/12/23 03:13:39;;;;;;;71.13;24.30;;;4.50;99.90;;;;;;5073067;28;20060;-61
2021/12/23 03:16:08;;;;;;;67.50;23.63;;;4.60;99.90;;;;;;5075009;28;20040;-61
2021/12/23 03:18:36;;;;;;;70.60;25.88;;;4.60;99.90;;;;;;5073865;28;20510;-59
2021/12/23 03:21:04;;;;;;;66.85;24.70;;;4.60;99.90;;;;;;5075105;28;20404;-60
2021/12/23 03:23:32;;;;;;;68.07;24.75;;;4.60;99.90;;;;;;5074833;28;20044;-62
2021/12/23 03:26:02;;;;;;;70.97;25.40;;;4.60;99.90;;;;;;5074753;28;20048;-60
2021/12/23 03:28:30;;;;;;;63.05;24.70;;;4.70;99.90;;;;;;5074881;28;20040;-64
2021/12/23 03:30:59;;;;;;;66.53;24.83;;;4.70;99.90;;;;;;5074866;28;20041;-62
2021/12/23 03:33:27;;;;;;;70.53;26.33;;;4.70;99.90;;;;;;5073646;28;20036;-63
2021/12/23 03:35:55;;;;;;;61.88;23.00;;;4.80;99.90;;;;;;5074787;28;20052;-62
2021/12/23 03:38:24;;;;;;;67.93;25.23;;;4.80;99.90;;;;;;5074441;28;20053;-62
2021/12/23 03:40:53;;;;;;;80.70;26.55;;;4.80;99.90;;;;;;5073530;28;20041;-62
2021/12/23 03:43:22;;;;;;;63.15;24.95;;;4.90;99.90;;;;;;5073502;28;20055;-63
2021/12/23 03:45:51;;;;;;;71.75;24.27;;;4.80;99.90;;;;;;5074445;28;20057;-62
2021/12/23 03:48:19;;;;;;;58.45;23.25;;;4.80;99.90;;;;;;5074471;28;20405;-62
2021/12/23 03:50:48;;;;;;;69.95;24.40;;;4.80;99.90;;;;;;5056773;28;20052;-62
2021/12/23 03:53:17;;;;;;;71.20;24.63;;;4.80;99.90;;;;;;5074218;28;20045;-62
2021/12/23 03:55:44;;;;;;;65.63;24.38;;;4.80;99.90;;;;;;5073272;28;20416;-63
2021/12/23 03:58:13;;;;;;;65.18;23.30;;;4.80;99.90;;;;;;5074318;28;20048;-62
2021/12/23 04:00:42;;;;;;;62.20;22.80;;;4.80;99.90;;;;;;5074265;28;20472;-62
2021/12/23 04:03:10;;;;;;;65.35;24.55;;;4.80;99.90;;;;;;5074074;28;20049;-62
2021/12/23 04:05:37;;;;;;;64.68;25.30;;;4.80;99.90;;;;;;5074270;28;20048;-62
2021/12/23 04:08:05;;;;;;;75.13;25.35;;;4.80;99.90;;;;;;5074426;28;20059;-61
2021/12/23 04:10:34;;;;;;;63.05;24.40;;;4.80;99.90;;;;;;5074183;28;20805;-61
2021/12/23 04:13:02;;;;;;;66.82;25.75;;;4.80;99.90;;;;;;5074142;28;20037;-61
2021/12/23 04:15:29;;;;;;;76.07;25.27;;;4.80;99.90;;;;;;5074631;28;20041;-62
2021/12/23 04:17:57;;;;;;;76.22;24.40;;;4.80;99.90;;;;;;5074448;28;20048;-61
2021/12/23 04:20:32;;;;;;;64.97;25.10;;;4.80;99.90;;;;;;5073200;28;20049;-62
2021/12/23 04:23:02;;;;;;;65.43;25.25;;;4.80;99.90;;;;;;5073825;28;20103;-62
2021/12/23 04:25:30;;;;;;;78.07;27.23;;;4.80;99.90;;;;;;5074132;28;20041;-63
2021/12/23 04:28:01;;;;;;;70.28;26.38;;;4.80;99.90;;;;;;5073851;28;20512;-66
2021/12/23 04:30:30;;;;;;;65.20;25.70;;;4.80;99.90;;;;;;5073785;28;20045;-67
2021/12/23 04:32:58;;;;;;;69.75;25.42;;;4.80;99.90;;;;;;5073675;28;20122;-66
2021/12/23 04:35:26;;;;;;;71.45;26.60;;;4.80;99.90;;;;;;5072210;28;20492;-67
2021/12/23 04:37:53;;;;;;;78.32;27.90;;;4.80;99.90;;;;;;5073590;28;20480;-67
2021/12/23 04:40:21;;;;;;;73.65;25.63;;;4.80;99.90;;;;;;5073533;28;20044;-66
2021/12/23 04:42:49;;;;;;;73.90;25.40;;;4.80;99.90;;;;;;5073585;28;20056;-66
2021/12/23 04:45:16;;;;;;;93.18;26.17;;;4.80;99.90;;;;;;5073267;28;20072;-66
2021/12/23 04:47:44;;;;;;;63.10;24.00;;;4.80;99.90;;;;;;5072110;28;20048;-67
2021/12/23 04:50:14;;;;;;;67.60;23.85;;;4.80;99.90;;;;;;5073435;28;20059;-66
2021/12/23 04:52:43;;;;;;;69.80;25.52;;;4.90;99.90;;;;;;5072520;28;20412;-67
2021/12/23 04:55:13;;;;;;;64.80;25.48;;;4.80;99.90;;;;;;5073829;28;20044;-65
2021/12/23 04:57:42;;;;;;;71.75;26.23;;;4.90;99.90;;;;;;5073187;28;20044;-62
2021/12/23 05:00:14;;;;;;;63.42;24.58;;;4.90;99.90;;;;;;5073100;28;20051;-66
2021/12/23 05:02:42;;;;;;;68.35;25.70;;;4.90;99.90;;;;;;5073096;28;20048;-66
2021/12/23 05:05:10;;;;;;;67.82;25.45;;;4.90;99.90;;;;;;5073163;28;20051;-66
2021/12/23 05:07:38;;;;;;;74.75;25.83;;;4.90;99.90;;;;;;5073193;28;20045;-66
2021/12/23 05:10:07;;;;;;;70.57;24.65;;;4.90;99.90;;;;;;5073011;28;20055;-66
2021/12/23 05:12:42;;;;;;;72.45;26.13;;;4.90;99.90;;;;;;5071841;28;20052;-66
2021/12/23 05:15:17;;;;;;;73.63;25.02;;;4.90;99.90;;;;;;5055005;28;20407;-65
2021/12/23 05:17:46;;;;;;;68.53;25.70;;;4.90;99.90;;;;;;5071738;28;20503;-66
2021/12/23 05:20:17;;;;;;;69.90;26.20;;;4.90;99.90;;;;;;5072996;28;20044;-61
2021/12/23 05:22:46;;;;;;;77.07;25.65;;;4.90;99.90;;;;;;5072693;28;20036;-61
2021/12/23 05:25:15;;;;;;;78.95;26.42;;;5.00;99.90;;;;;;5072587;28;20055;-62
2021/12/23 05:27:44;;;;;;;71.85;25.60;;;5.00;99.90;;;;;;5071424;28;20052;-61
2021/12/23 05:30:15;;;;;;;68.30;24.60;;;5.00;99.90;;;;;;5072418;28;20048;-61
2021/12/23 05:32:43;;;;;;;78.00;27.33;;;5.00;99.90;;;;;;5071297;28;20420;-61
2021/12/23 05:35:13;;;;;;;69.57;24.27;;;5.00;99.90;;;;;;5072500;28;20045;-61
2021/12/23 05:37:41;;;;;;;70.90;24.55;;;5.00;99.90;;;;;;5072322;28;20044;-62
2021/12/23 05:40:13;;;;;;;71.72;26.60;;;5.00;99.90;;;;;;5072316;28;20048;-62
2021/12/23 05:42:41;;;;;;;72.38;24.92;;;5.00;99.90;;;;;;5072207;28;20051;-62
2021/12/23 05:45:10;;;;;;;67.47;25.58;;;5.00;99.90;;;;;;5070913;28;20075;-62
2021/12/23 05:47:38;;;;;;;75.32;24.85;;;5.00;99.90;;;;;;5063578;28;20048;-61
2021/12/23 05:50:07;;;;;;;75.15;25.92;;;5.00;99.90;;;;;;5068679;28;20047;-62
2021/12/23 05:52:35;;;;;;;79.47;26.23;;;5.00;99.90;;;;;;5067776;28;20044;-61
2021/12/23 05:55:05;;;;;;;78.97;25.63;;;5.00;99.90;;;;;;5068567;28;20044;-62
2021/12/23 05:57:34;;;;;;;;;;;5.00;99.90;;;;;;5073547;28;20526;-61
2021/12/23 06:00:08;;;;;;;74.60;26.65;;;5.00;99.90;;;;;;5087245;28;20188;-61
2021/12/23 06:02:37;;;;;;;74.63;27.15;;;5.00;99.90;;;;;;5064176;28;20041;-61
2021/12/23 06:05:06;;;;;;;73.68;25.23;;;5.00;99.90;;;;;;5027292;28;20065;-61
2021/12/23 06:07:34;;;;;;;78.05;27.20;;;5.00;99.90;;;;;;5054460;28;20044;-61
2021/12/23 06:10:03;;;;;;;71.38;23.35;;;5.00;99.90;;;;;;5089054;28;20052;-62
2021/12/23 06:12:31;;;;;;;84.93;27.40;;;5.00;99.90;;;;;;5089169;28;20058;-61
2021/12/23 06:14:59;;;;;;;77.78;27.52;;;5.00;99.90;;;;;;5088853;28;20055;-61
2021/12/23 06:17:27;;;;;;;83.00;27.85;;;5.00;99.90;;;;;;5078819;28;20051;-62
2021/12/23 06:19:55;;;;;;;84.72;26.73;;;5.00;99.90;;;;;;5044942;28;20063;-61
2021/12/23 06:22:22;;;;;;;90.85;28.90;;;5.00;99.90;;;;;;5054949;28;20438;-62
2021/12/23 06:24:50;;;;;;;76.20;25.42;;;5.00;99.90;;;;;;5083609;28;20047;-61
2021/12/23 06:27:19;;;;;;;87.35;30.25;;;5.00;99.90;;;;;;5084809;28;20051;-62
2021/12/23 06:29:47;;;;;;;76.10;25.65;;;5.00;99.90;;;;;;5084851;28;20413;-61
2021/12/23 06:32:15;;;;;;;80.43;25.15;;;5.00;99.90;;;;;;5087279;28;20071;-62
2021/12/23 06:34:43;;;;;;;77.05;26.45;;;5.00;99.90;;;;;;5085710;28;20055;-61
2021/12/23 06:37:11;;;;;;;84.47;26.70;;;5.00;99.90;;;;;;5088698;28;20047;-62
2021/12/23 06:39:39;;;;;;;91.07;28.85;;;5.00;99.90;;;;;;5087859;28;20044;-61
2021/12/23 06:42:07;;;;;;;89.22;28.40;;;5.00;99.90;;;;;;5087444;28;20070;-61
2021/12/23 06:44:35;;;;;;;95.57;29.48;;;5.00;99.90;;;;;;5087922;28;20059;-61
2021/12/23 06:47:03;;;;;;;97.55;30.73;;;5.00;99.90;;;;;;5087914;28;20052;-63
2021/12/23 06:49:33;;;;;;;97.15;28.83;;;5.00;99.90;;;;;;5051961;28;20511;-61
2021/12/23 06:52:01;;;;;;;98.25;28.42;;;5.00;99.90;;;;;;5051344;28;20049;-62
2021/12/23 06:54:29;;;;;;;104.32;28.27;;;5.00;99.90;;;;;;5087796;28;20051;-60
2021/12/23 06:56:56;;;;;;;100.85;28.92;;;5.10;99.90;;;;;;5088059;28;20053;-61
2021/12/23 06:59:24;;;;;;;113.57;29.25;;;5.00;99.90;;;;;;5087883;28;20051;-60
2021/12/23 07:01:52;;;;;;;124.72;30.38;;;5.10;99.90;;;;;;5087980;28;20051;-60
2021/12/23 07:04:23;;;;;;;108.88;30.98;;;5.10;99.90;;;;;;5065220;28;20053;-60
2021/12/23 07:07:08;;;;;;;124.55;31.98;;;5.10;99.90;;;;;;5044219;28;20209;-60
2021/12/23 07:09:37;;;;;;;122.78;29.42;;;5.10;99.90;;;;;;5061703;28;20369;-62
2021/12/23 07:12:07;;;;;;;137.25;31.33;;;5.10;99.90;;;;;;5051885;28;20408;-62
2021/12/23 07:14:35;;;;;;;128.75;30.60;;;5.10;99.90;;;;;;5087414;28;20048;-62
2021/12/23 07:17:03;;;;;;;151.68;34.30;;;5.10;99.90;;;;;;5087642;28;20454;-62
2021/12/23 07:19:31;;;;;;;137.95;32.03;;;5.10;99.90;;;;;;5070727;28;20048;-62
2021/12/23 07:21:59;;;;;;;129.10;31.23;;;5.10;99.90;;;;;;5069140;28;20060;-62
2021/12/23 07:24:27;;;;;;;141.88;32.15;;;5.10;99.90;;;;;;5087547;28;20217;-60
2021/12/23 07:26:55;;;;;;;144.35;31.95;;;5.10;99.90;;;;;;5079108;28;20045;-62
2021/12/23 07:29:23;;;;;;;172.73;34.42;;;5.10;99.90;;;;;;5086503;28;20059;-62
2021/12/23 07:31:50;;;;;;;158.15;30.55;;;5.20;99.90;;;;;;5087601;28;20044;-62
2021/12/23 07:34:18;;;;;;;174.32;33.20;;;5.20;99.90;;;;;;5073493;28;20033;-61
2021/12/23 07:36:46;;;;;;;179.13;34.53;;;5.20;99.90;;;;;;5067566;28;20068;-62
2021/12/23 07:39:13;;;;;;;236.68;35.90;;;5.20;99.90;;;;;;5084366;28;20051;-61
2021/12/23 07:42:01;;;;;;;206.23;32.33;;;5.20;99.90;;;;;;5084107;28;20412;-62
2021/12/23 07:44:36;;;;;;;230.75;35.33;;;5.20;99.90;;;;;;5084051;28;20055;-62
2021/12/23 07:47:05;;;;;;;200.05;37.03;;;5.20;99.90;;;;;;5085873;28;20067;-62
2021/12/23 07:49:33;;;;;;;169.93;33.73;;;5.30;99.90;;;;;;5072327;28;20524;-62
2021/12/23 07:52:01;;;;;;;197.90;37.63;;;5.30;99.90;;;;;;5066114;28;20451;-62
2021/12/23 07:54:32;;;;;;;181.63;33.30;;;5.40;99.90;;;;;;5085523;28;20055;-62
2021/12/23 07:57:00;;;;;;;185.38;35.95;;;5.30;99.90;;;;;;5090162;28;20056;-62
2021/12/23 07:59:28;;;;;;;172.00;35.20;;;5.40;99.90;;;;;;5070882;28;20051;-64
2021/12/23 08:01:57;;;;;;;192.82;35.85;;;5.40;99.90;;;;;;5069276;28;20049;-62
2021/12/23 08:04:25;;;;;;;198.65;37.38;;;5.40;99.90;;;;;;5062558;28;20048;-62
2021/12/23 08:06:57;;;;;;;213.10;37.78;;;5.50;99.90;;;;;;5049141;28;20051;-62
2021/12/23 08:09:25;;;;;;;208.57;36.78;;;5.50;99.90;;;;;;5088662;28;20044;-62
2021/12/23 08:11:53;;;;;;;205.02;37.00;;;5.40;99.90;;;;;;5091030;28;20048;-65
2021/12/23 08:14:21;;;;;;;197.02;36.72;;;5.50;99.90;;;;;;5091037;28;20048;-62
2021/12/23 08:16:48;;;;;;;201.75;38.65;;;5.50;99.90;;;;;;5091245;28;20056;-64
2021/12/23 08:19:16;;;;;;;181.60;36.22;;;5.50;99.90;;;;;;5069676;28;20041;-63
2021/12/23 08:21:44;;;;;;;189.52;36.63;;;5.50;99.90;;;;;;5050504;28;20045;-62
2021/12/23 08:24:12;;;;;;;216.57;38.08;;;5.60;99.90;;;;;;5088796;28;20044;-64
2021/12/23 08:26:42;;;;;;;198.65;38.08;;;5.60;99.90;;;;;;5091087;28;20411;-62
2021/12/23 08:29:09;;;;;;;;;;;5.60;99.90;;;;;;5090712;28;20388;-62
2021/12/23 08:31:37;;;;;;;191.27;35.45;;;5.60;99.90;;;;;;5090493;28;20299;-64
2021/12/23 08:34:05;;;;;;;195.93;38.15;;;5.70;99.90;;;;;;5076334;28;20049;-61
2021/12/23 08:36:33;;;;;;;198.98;38.53;;;5.70;99.90;;;;;;5050100;28;20394;-61
2021/12/23 08:39:01;;;;;;;216.40;38.22;;;5.70;99.90;;;;;;5082594;28;20040;-62
2021/12/23 08:41:29;;;;;;;209.90;39.67;;;5.70;99.90;;;;;;5089290;28;20056;-62
2021/12/23 08:43:56;;;;;;;226.40;38.75;;;5.70;99.90;;;;;;5089674;28;20048;-62
2021/12/23 08:46:24;;;;;;;196.63;36.88;;;5.80;99.90;;;;;;5090044;28;20506;-61
2021/12/23 08:48:52;;;;;;;223.57;37.53;;;5.90;99.90;;;;;;5061544;28;20048;-62
2021/12/23 08:51:20;;;;;;;215.48;37.40;;;5.90;99.90;;;;;;5049452;28;20484;-62
2021/12/23 08:53:48;;;;;;;209.50;39.20;;;5.90;99.90;;;;;;5077964;28;20471;-61
2021/12/23 08:56:16;;;;;;;202.23;36.42;;;5.90;99.90;;;;;;5086936;28;20521;-59
2021/12/23 08:58:43;;;;;;;185.75;37.33;;;6.00;99.90;;;;;;5086607;28;20048;-62
2021/12/23 09:01:11;;;;;;;184.48;34.22;;;6.00;99.90;;;;;;5086544;28;20044;-62
2021/12/23 09:03:39;;;;;;;215.73;35.38;;;6.00;99.90;;;;;;5083542;28;21531;-62
2021/12/23 09:06:07;;;;;;;224.18;36.60;;;6.10;99.90;;;;;;5049361;28;20052;-62
2021/12/23 09:08:35;;;;;;;211.35;35.83;;;6.10;99.90;;;;;;5080902;28;20488;-62
2021/12/23 09:11:03;;;;;;;171.60;31.65;;;6.10;99.90;;;;;;5089698;28;20062;-62
2021/12/23 09:13:31;;;;;;;179.98;35.90;;;6.20;99.90;;;;;;5089486;28;20074;-61
2021/12/23 09:15:59;;;;;;;173.88;34.85;;;6.20;99.90;;;;;;5088734;28;20055;-62
2021/12/23 09:18:27;;;;;;;207.13;35.30;;;6.30;99.90;;;;;;5086972;28;20036;-61
2021/12/23 09:20:56;;;;;;;201.27;35.22;;;6.30;99.90;;;;;;5068961;28;20056;-61
2021/12/23 09:23:24;;;;;;;217.10;35.50;;;6.30;99.90;;;;;;5081350;28;20388;-62
2021/12/23 09:25:54;;;;;;;220.52;35.65;;;6.30;99.90;;;;;;5089537;28;20400;-62
2021/12/23 09:28:40;;;;;;;218.23;36.17;;;6.30;99.90;;;;;;5089242;28;20047;-61
2021/12/23 09:33:54;;;;;;;222.95;37.03;;;6.40;99.90;;;;;;5082092;28;20036;-62
2021/12/23 09:36:22;;;;;;;237.13;34.25;;;6.40;99.90;;;;;;5031305;28;20072;-62
2021/12/23 09:38:49;;;;;;;233.55;37.67;;;6.40;99.90;;;;;;5077761;28;20040;-62
2021/12/23 09:41:20;;;;;;;288.73;38.92;;;6.40;99.90;;;;;;5089260;28;20051;-62
2021/12/23 09:43:49;;;;;;;304.38;40.35;;;6.40;99.90;;;;;;5088721;28;20047;-62
2021/12/23 09:46:23;;;;;;;246.73;39.63;;;6.40;99.90;;;;;;5085946;28;20075;-62
2021/12/23 09:48:51;;;;;;;203.80;38.15;;;6.50;99.90;;;;;;5081518;28;20052;-62
2021/12/23 09:51:21;;;;;;;228.10;36.63;;;6.40;99.90;;;;;;5045803;28;20037;-63
2021/12/23 09:53:58;;;;;;;235.55;38.13;;;6.40;99.90;;;;;;5075277;28;20054;-64
2021/12/23 09:56:28;;;;;;;246.00;38.15;;;6.40;99.90;;;;;;5087300;28;20048;-62
2021/12/23 09:58:57;;;;;;;255.90;36.95;;;6.50;99.90;;;;;;5088923;28;20047;-63
2021/12/23 10:01:28;;;;;;;247.70;37.47;;;6.50;99.90;;;;;;5089219;28;20048;-62
2021/12/23 10:03:56;;;;;;;260.13;39.50;;;6.50;99.90;;;;;;5085772;28;20051;-62
2021/12/23 10:06:25;;;;;;;238.80;37.17;;;6.50;99.90;;;;;;5068510;28;20049;-63
2021/12/23 10:08:54;;;;;;;247.70;39.40;;;6.50;99.90;;;;;;5083477;28;20505;-65
2021/12/23 10:31:36;;;;;;;239.10;37.25;;;6.60;99.90;;;;;;5088270;28;20051;-65
2021/12/23 10:39:46;;;;;;;198.10;33.50;;;6.70;99.90;;;;;;5048383;28;20048;-63
2021/12/23 10:42:18;;;;;;;194.70;34.13;;;6.70;99.90;;;;;;5052552;28;20469;-63
2021/12/23 10:44:55;;;;;;;171.93;32.67;;;6.80;99.90;;;;;;5087635;28;20059;-64
2021/12/23 10:47:28;;;;;;;189.52;35.58;;;6.80;99.90;;;;;;5086615;28;20047;-64
2021/12/23 10:50:27;;;;;;;169.68;35.75;;;6.80;99.90;;;;;;5074776;28;20041;-62
2021/12/23 10:53:03;;;;;;;165.40;33.83;;;6.90;99.90;;;;;;5063869;28;20376;-64
2021/12/23 10:58:18;;;;;;;157.90;31.42;;;7.00;99.90;;;;;;5086856;28;20052;-64
2021/12/23 11:00:50;;;;;;;146.90;30.85;;;7.10;99.90;;;;;;5088156;28;20496;-62
2021/12/23 11:03:38;;;;;;;153.20;32.22;;;7.10;99.90;;;;;;5087853;28;20039;-61
2021/12/23 11:06:23;;;;;;;147.77;33.28;;;7.20;99.90;;;;;;5056808;28;20045;-63
2021/12/23 11:39:29;;;;;;;161.63;31.35;;;7.70;99.90;;;;;;5083099;28;20055;-59
2021/12/23 11:42:13;;;;;;;143.75;32.15;;;7.70;99.90;;;;;;5091583;28;20056;-60
2021/12/23 11:44:41;;;;;;;150.52;33.38;;;7.70;99.90;;;;;;5091431;28;20060;-59
2021/12/23 11:47:13;;;;;;;162.15;35.03;;;7.70;99.90;;;;;;5091729;28;20048;-60
2021/12/23 11:49:44;;;;;;;158.00;37.80;;;7.80;99.90;;;;;;5090293;28;20056;-60
2021/12/23 11:52:13;;;;;;;162.25;38.05;;;7.70;99.90;;;;;;5053769;28;20060;-59
2021/12/23 11:54:46;;;;;;;150.65;35.33;;;7.80;99.90;;;;;;5091215;28;20530;-63
2021/12/23 11:57:31;;;;;;;148.93;38.13;;;7.80;99.90;;;;;;5073430;28;20059;-60
2021/12/23 12:00:15;;;;;;;149.25;34.45;;;7.80;99.90;;;;;;5091052;28;20043;-60
2021/12/23 12:03:02;;;;;;;152.97;35.67;;;7.80;99.90;;;;;;5091043;28;20051;-60
2021/12/23 12:05:32;;;;;;;154.32;34.03;;;7.90;99.90;;;;;;5078164;28;20041;-60
2021/12/23 12:08:17;;;;;;;146.52;32.45;;;7.90;99.90;;;;;;5065218;28;20040;-59
2021/12/23 12:10:45;;;;;;;138.60;32.35;;;7.90;99.90;;;;;;5090719;28;20040;-59
2021/12/23 12:13:16;;;;;;;145.73;33.83;;;7.90;99.90;;;;;;5090480;28;20058;-59
2021/12/23 12:15:48;;;;;;;147.32;32.80;;;8.00;99.90;;;;;;5090680;28;20048;-59
2021/12/23 12:18:22;;;;;;;148.35;32.42;;;8.00;99.90;;;;;;5090569;28;20040;-59
2021/12/23 12:20:59;;;;;;;150.35;34.88;;;8.00;99.90;;;;;;5081924;28;20420;-59
2021/12/23 12:23:41;;;;;;;146.25;33.60;;;8.10;99.90;;;;;;5081969;28;20040;-60
2021/12/23 12:26:12;;;;;;;150.07;32.00;;;8.10;99.90;;;;;;5090512;28;20044;-60
2021/12/23 12:28:45;;;;;;;140.75;32.15;;;8.10;99.90;;;;;;5089063;28;20043;-63
2021/12/23 12:31:19;;;;;;;135.35;32.00;;;8.10;99.90;;;;;;5089275;28;20044;-60
2021/12/23 12:34:08;;;;;;;162.75;41.50;;;8.10;99.90;;;;;;5089870;28;20048;-60
2021/12/23 12:36:49;;;;;;;146.27;40.33;;;8.20;99.90;;;;;;5064371;28;20045;-59
2021/12/23 12:39:24;;;;;;;144.77;43.67;;;8.20;99.90;;;;;;5085503;28;20044;-60
2021/12/23 12:42:16;;;;;;;112.60;30.23;;;8.20;99.90;;;;;;5089754;28;20824;-60
2021/12/23 12:45:00;;;;;;;128.75;33.67;;;8.20;99.90;;;;;;5089803;28;20044;-60
2021/12/23 12:47:32;;;;;;;120.68;31.23;;;8.20;99.90;;;;;;5090193;28;20504;-62
2021/12/23 12:50:13;;;;;;;118.78;30.15;;;8.20;99.90;;;;;;5090502;28;20048;-64
2021/12/23 12:52:46;;;;;;;112.78;30.65;;;8.30;99.90;;;;;;5059969;28;20050;-59
2021/12/23 12:55:18;;;;;;;116.28;29.40;;;8.40;99.90;;;;;;5089816;28;20040;-62
2021/12/23 12:57:49;;;;;;;95.70;28.52;;;8.30;99.90;;;;;;5089839;28;20044;-63
2021/12/23 13:00:35;;;;;;;118.05;30.08;;;8.40;99.90;;;;;;5090046;28;20044;-60
2021/12/23 13:03:07;;;;;;;112.03;27.80;;;8.40;99.90;;;;;;5089816;28;20483;-61
2021/12/23 13:05:39;;;;;;;102.78;27.77;;;8.40;99.90;;;;;;5082298;28;20041;-60
2021/12/23 13:08:21;;;;;;;103.00;26.98;;;8.40;99.90;;;;;;5066357;28;20055;-59
2021/12/23 13:11:22;;;;;;;108.13;26.52;;;8.40;99.90;;;;;;5088441;28;20044;-59
2021/12/23 13:14:14;;;;;;;104.18;28.65;;;8.40;99.90;;;;;;5088441;28;20044;-60
2021/12/23 13:17:00;;;;;;;101.30;28.55;;;8.50;99.90;;;;;;5089470;28;20044;-59
2021/12/23 13:19:30;;;;;;;106.78;28.33;;;8.50;99.90;;;;;;5089430;28;20055;-59
2021/12/23 13:21:59;;;;;;;112.50;30.13;;;8.50;99.90;;;;;;5061771;28;20049;-59
2021/12/23 13:24:28;;;;;;;106.78;28.02;;;8.50;99.90;;;;;;5088317;28;20060;-60
2021/12/23 13:26:58;;;;;;;113.03;30.10;;;8.50;99.90;;;;;;5089238;28;20048;-62
2021/12/23 13:29:29;;;;;;;102.85;29.77;;;8.50;99.90;;;;;;5089146;28;20044;-63
2021/12/23 13:32:00;;;;;;;101.65;28.35;;;8.60;99.90;;;;;;5088204;28;20044;-62
2021/12/23 13:34:31;;;;;;;96.80;28.52;;;8.60;99.90;;;;;;5088861;28;20051;-63
2021/12/23 13:37:06;;;;;;;99.00;28.10;;;8.60;99.90;;;;;;5062857;28;20507;-59
2021/12/23 13:39:38;;;;;;;97.38;31.08;;;8.70;99.90;;;;;;5089104;28;20292;-59
2021/12/23 13:42:09;;;;;;;93.75;27.52;;;8.60;99.90;;;;;;5087881;28;20051;-62
2021/12/23 13:44:40;;;;;;;90.10;27.27;;;8.60;99.90;;;;;;5088771;28;20359;-60
2021/12/23 13:47:14;;;;;;;105.22;29.27;;;8.70;99.90;;;;;;5089300;28;20056;-59
2021/12/23 13:49:47;;;;;;;89.30;26.25;;;8.70;99.90;;;;;;5087968;28;20044;-60
2021/12/23 13:52:28;;;;;;;98.07;29.77;;;8.70;99.90;;;;;;5062982;28;20045;-62
2021/12/23 13:54:57;;;;;;;80.45;26.95;;;8.70;99.90;;;;;;5089027;28;20651;-62
2021/12/23 13:57:26;;;;;;;85.55;24.40;;;8.70;99.90;;;;;;5088811;28;20051;-62